sensor_id;sensor_type;location;lat;lon;timestamp;P1;durP1;ratioP1;P2;durP2;ratioP2
42186;SDS011;27858;51.414;0.018;2022-11-20T00:01:15;12.02;;;3.50;;
42186;SDS011;27858;51.414;0.018;2022-11-20T00:03:44;8.02;;;3.83;;
42186;SDS011;27858;51.414;0.018;2022-11-20T00:06:13;9.00;;;3.08;;
42186;SDS011;27858;51.414;0.018;2022-11-20T00:08:42;7.45;;;3.47;;
42186;SDS011;27858;51.414;0.018;2022-11-20T00:11:10;7.53;;;2.92;;
42186;SDS011;27858;51.414;0.018;2022-11-20T00:13:42;6.95;;;2.80;;
42186;SDS011;27858;51.414;0.018;2022-11-20T00:16:14;5.32;;;3.20;;
42186;SDS011;27858;51.414;0.018;2022-11-20T00:18:42;10.38;;;3.67;;
42186;SDS011;27858;51.414;0.018;2022-11-20T00:21:11;12.10;;;3.85;;
42186;SDS011;27858;51.414;0.018;2022-11-20T00:23:42;13.65;;;3.45;;
42186;SDS011;27858;51.414;0.018;2022-11-20T00:26:10;7.03;;;3.38;;
42186;SDS011;27858;51.414;0.018;2022-11-20T00:28:39;8.75;;;3.45;;
42186;SDS011;27858;51.414;0.018;2022-11-20T00:31:08;11.20;;;3.28;;
42186;SDS011;27858;51.414;0.018;2022-11-20T00:33:40;10.68;;;3.03;;
42186;SDS011;27858;51.414;0.018;2022-11-20T00:36:15;5.20;;;2.25;;
42186;SDS011;27858;51.414;0.018;2022-11-20T00:38:46;6.38;;;2.95;;
42186;SDS011;27858;51.414;0.018;2022-11-20T00:41:14;5.82;;;2.33;;
42186;SDS011;27858;51.414;0.018;2022-11-20T00:43:41;6.75;;;3.53;;
42186;SDS011;27858;51.414;0.018;2022-11-20T00:48:42;3.70;;;2.10;;
42186;SDS011;27858;51.414;0.018;2022-11-20T00:51:11;6.30;;;3.45;;
42186;SDS011;27858;51.414;0.018;2022-11-20T00:53:39;8.05;;;3.67;;
42186;SDS011;27858;51.414;0.018;2022-11-20T00:56:07;5.35;;;2.33;;
42186;SDS011;27858;51.414;0.018;2022-11-20T00:58:38;7.38;;;3.17;;
42186;SDS011;27858;51.414;0.018;2022-11-20T01:01:10;7.93;;;2.92;;
42186;SDS011;27858;51.414;0.018;2022-11-20T01:03:43;10.32;;;3.38;;
42186;SDS011;27858;51.414;0.018;2022-11-20T01:08:45;8.73;;;3.17;;
42186;SDS011;27858;51.414;0.018;2022-11-20T01:11:15;9.15;;;2.65;;
42186;SDS011;27858;51.414;0.018;2022-11-20T01:13:49;5.35;;;2.50;;
42186;SDS011;27858;51.414;0.018;2022-11-20T01:16:39;7.85;;;2.85;;
42186;SDS011;27858;51.414;0.018;2022-11-20T01:19:07;5.18;;;1.60;;
42186;SDS011;27858;51.414;0.018;2022-11-20T01:21:43;6.55;;;1.80;;
42186;SDS011;27858;51.414;0.018;2022-11-20T01:24:11;5.57;;;1.73;;
42186;SDS011;27858;51.414;0.018;2022-11-20T01:26:41;3.58;;;1.85;;
42186;SDS011;27858;51.414;0.018;2022-11-20T01:29:14;4.72;;;1.85;;
42186;SDS011;27858;51.414;0.018;2022-11-20T01:31:49;7.05;;;3.17;;
42186;SDS011;27858;51.414;0.018;2022-11-20T01:34:18;6.82;;;2.50;;
42186;SDS011;27858;51.414;0.018;2022-11-20T01:36:46;6.63;;;2.75;;
42186;SDS011;27858;51.414;0.018;2022-11-20T01:39:14;4.40;;;1.73;;
42186;SDS011;27858;51.414;0.018;2022-11-20T01:41:51;2.72;;;1.20;;
42186;SDS011;27858;51.414;0.018;2022-11-20T01:44:52;6.07;;;1.92;;
42186;SDS011;27858;51.414;0.018;2022-11-20T01:52:37;3.03;;;1.38;;
42186;SDS011;27858;51.414;0.018;2022-11-20T01:55:13;5.10;;;1.33;;
42186;SDS011;27858;51.414;0.018;2022-11-20T01:57:45;5.82;;;1.67;;
42186;SDS011;27858;51.414;0.018;2022-11-20T02:00:15;4.63;;;1.42;;
42186;SDS011;27858;51.414;0.018;2022-11-20T02:02:46;4.55;;;1.83;;
42186;SDS011;27858;51.414;0.018;2022-11-20T02:07:48;5.38;;;1.77;;
42186;SDS011;27858;51.414;0.018;2022-11-20T02:10:16;6.35;;;1.50;;
42186;SDS011;27858;51.414;0.018;2022-11-20T02:12:43;3.85;;;1.52;;
42186;SDS011;27858;51.414;0.018;2022-11-20T02:15:28;6.32;;;2.15;;
42186;SDS011;27858;51.414;0.018;2022-11-20T02:17:55;2.42;;;0.88;;
42186;SDS011;27858;51.414;0.018;2022-11-20T02:20:22;6.20;;;1.80;;
42186;SDS011;27858;51.414;0.018;2022-11-20T02:23:07;3.25;;;0.95;;
42186;SDS011;27858;51.414;0.018;2022-11-20T02:25:40;3.72;;;1.63;;
42186;SDS011;27858;51.414;0.018;2022-11-20T02:28:09;1.73;;;1.33;;
42186;SDS011;27858;51.414;0.018;2022-11-20T02:30:36;6.47;;;1.63;;
42186;SDS011;27858;51.414;0.018;2022-11-20T02:33:03;2.60;;;1.10;;
42186;SDS011;27858;51.414;0.018;2022-11-20T02:37:58;4.25;;;1.20;;
42186;SDS011;27858;51.414;0.018;2022-11-20T02:40:28;14.05;;;3.25;;
42186;SDS011;27858;51.414;0.018;2022-11-20T02:42:55;3.40;;;1.60;;
42186;SDS011;27858;51.414;0.018;2022-11-20T02:45:23;30.67;;;2.47;;
42186;SDS011;27858;51.414;0.018;2022-11-20T02:47:51;2.42;;;1.40;;
42186;SDS011;27858;51.414;0.018;2022-11-20T02:50:18;4.70;;;1.30;;
42186;SDS011;27858;51.414;0.018;2022-11-20T02:52:45;3.83;;;1.52;;
42186;SDS011;27858;51.414;0.018;2022-11-20T02:55:12;2.45;;;1.00;;
42186;SDS011;27858;51.414;0.018;2022-11-20T02:57:39;4.15;;;1.85;;
42186;SDS011;27858;51.414;0.018;2022-11-20T03:00:06;4.57;;;1.63;;
42186;SDS011;27858;51.414;0.018;2022-11-20T03:02:33;3.67;;;1.38;;
42186;SDS011;27858;51.414;0.018;2022-11-20T03:05:00;2.45;;;1.15;;
42186;SDS011;27858;51.414;0.018;2022-11-20T03:07:27;7.47;;;1.85;;
42186;SDS011;27858;51.414;0.018;2022-11-20T03:09:54;3.28;;;1.50;;
42186;SDS011;27858;51.414;0.018;2022-11-20T03:12:21;2.58;;;1.20;;
42186;SDS011;27858;51.414;0.018;2022-11-20T03:14:47;4.85;;;1.65;;
42186;SDS011;27858;51.414;0.018;2022-11-20T03:17:18;2.45;;;1.00;;
42186;SDS011;27858;51.414;0.018;2022-11-20T03:19:45;4.20;;;1.42;;
42186;SDS011;27858;51.414;0.018;2022-11-20T03:22:12;2.72;;;1.20;;
42186;SDS011;27858;51.414;0.018;2022-11-20T03:24:39;2.58;;;1.13;;
42186;SDS011;27858;51.414;0.018;2022-11-20T03:27:06;1.77;;;0.80;;
42186;SDS011;27858;51.414;0.018;2022-11-20T03:29:32;8.80;;;1.27;;
42186;SDS011;27858;51.414;0.018;2022-11-20T03:32:01;4.82;;;0.73;;
42186;SDS011;27858;51.414;0.018;2022-11-20T03:34:28;3.72;;;1.08;;
42186;SDS011;27858;51.414;0.018;2022-11-20T03:36:55;5.28;;;1.15;;
42186;SDS011;27858;51.414;0.018;2022-11-20T03:39:22;2.75;;;1.50;;
42186;SDS011;27858;51.414;0.018;2022-11-20T03:41:49;6.78;;;1.50;;
42186;SDS011;27858;51.414;0.018;2022-11-20T03:44:16;2.25;;;1.25;;
42186;SDS011;27858;51.414;0.018;2022-11-20T03:46:42;6.10;;;1.52;;
42186;SDS011;27858;51.414;0.018;2022-11-20T03:49:09;2.47;;;0.90;;
42186;SDS011;27858;51.414;0.018;2022-11-20T03:51:36;1.23;;;1.13;;
42186;SDS011;27858;51.414;0.018;2022-11-20T03:54:04;5.25;;;1.50;;
42186;SDS011;27858;51.414;0.018;2022-11-20T03:56:33;7.05;;;1.35;;
42186;SDS011;27858;51.414;0.018;2022-11-20T03:59:03;4.90;;;1.30;;
42186;SDS011;27858;51.414;0.018;2022-11-20T04:01:32;4.40;;;1.40;;
42186;SDS011;27858;51.414;0.018;2022-11-20T04:04:00;1.50;;;0.85;;
42186;SDS011;27858;51.414;0.018;2022-11-20T04:06:28;4.82;;;0.80;;
42186;SDS011;27858;51.414;0.018;2022-11-20T04:08:57;1.45;;;0.70;;
42186;SDS011;27858;51.414;0.018;2022-11-20T04:11:28;3.08;;;0.93;;
42186;SDS011;27858;51.414;0.018;2022-11-20T04:13:58;2.63;;;0.82;;
42186;SDS011;27858;51.414;0.018;2022-11-20T04:16:28;3.47;;;1.38;;
42186;SDS011;27858;51.414;0.018;2022-11-20T04:18:57;1.85;;;0.75;;
42186;SDS011;27858;51.414;0.018;2022-11-20T04:21:25;6.47;;;1.05;;
42186;SDS011;27858;51.414;0.018;2022-11-20T04:23:53;8.52;;;2.08;;
42186;SDS011;27858;51.414;0.018;2022-11-20T04:26:21;3.28;;;1.15;;
42186;SDS011;27858;51.414;0.018;2022-11-20T04:28:52;4.28;;;1.83;;
42186;SDS011;27858;51.414;0.018;2022-11-20T04:31:20;3.85;;;1.55;;
42186;SDS011;27858;51.414;0.018;2022-11-20T04:33:48;2.47;;;1.02;;
42186;SDS011;27858;51.414;0.018;2022-11-20T04:36:16;5.32;;;1.10;;
42186;SDS011;27858;51.414;0.018;2022-11-20T04:38:45;8.93;;;2.20;;
42186;SDS011;27858;51.414;0.018;2022-11-20T04:41:16;7.35;;;2.08;;
42186;SDS011;27858;51.414;0.018;2022-11-20T04:43:52;8.95;;;2.20;;
42186;SDS011;27858;51.414;0.018;2022-11-20T04:46:26;2.15;;;1.13;;
42186;SDS011;27858;51.414;0.018;2022-11-20T04:48:53;6.05;;;1.88;;
42186;SDS011;27858;51.414;0.018;2022-11-20T04:51:20;6.55;;;1.48;;
42186;SDS011;27858;51.414;0.018;2022-11-20T04:53:47;1.63;;;1.35;;
42186;SDS011;27858;51.414;0.018;2022-11-20T04:56:14;3.95;;;1.38;;
42186;SDS011;27858;51.414;0.018;2022-11-20T04:58:41;3.03;;;1.17;;
42186;SDS011;27858;51.414;0.018;2022-11-20T05:01:12;2.72;;;0.75;;
42186;SDS011;27858;51.414;0.018;2022-11-20T05:03:41;4.13;;;1.23;;
42186;SDS011;27858;51.414;0.018;2022-11-20T05:06:08;3.30;;;1.05;;
42186;SDS011;27858;51.414;0.018;2022-11-20T05:08:36;1.25;;;0.65;;
42186;SDS011;27858;51.414;0.018;2022-11-20T05:11:04;2.97;;;0.88;;
42186;SDS011;27858;51.414;0.018;2022-11-20T05:13:33;2.97;;;0.90;;
42186;SDS011;27858;51.414;0.018;2022-11-20T05:16:01;1.88;;;0.98;;
42186;SDS011;27858;51.414;0.018;2022-11-20T05:18:33;3.15;;;1.10;;
42186;SDS011;27858;51.414;0.018;2022-11-20T05:21:00;2.30;;;1.02;;
42186;SDS011;27858;51.414;0.018;2022-11-20T05:23:28;2.92;;;1.13;;
42186;SDS011;27858;51.414;0.018;2022-11-20T05:25:56;6.03;;;2.00;;
42186;SDS011;27858;51.414;0.018;2022-11-20T05:28:25;3.15;;;1.35;;
42186;SDS011;27858;51.414;0.018;2022-11-20T05:30:53;4.90;;;1.35;;
42186;SDS011;27858;51.414;0.018;2022-11-20T05:33:20;3.70;;;1.73;;
42186;SDS011;27858;51.414;0.018;2022-11-20T05:35:48;4.57;;;1.63;;
42186;SDS011;27858;51.414;0.018;2022-11-20T05:38:15;5.78;;;1.63;;
42186;SDS011;27858;51.414;0.018;2022-11-20T05:40:42;3.38;;;1.13;;
42186;SDS011;27858;51.414;0.018;2022-11-20T05:43:09;3.00;;;1.48;;
42186;SDS011;27858;51.414;0.018;2022-11-20T05:45:35;2.90;;;1.25;;
42186;SDS011;27858;51.414;0.018;2022-11-20T10:47:19;8.82;;;2.55;;
42186;SDS011;27858;51.414;0.018;2022-11-20T10:49:54;4.15;;;2.03;;
42186;SDS011;27858;51.414;0.018;2022-11-20T10:52:37;8.68;;;3.10;;
42186;SDS011;27858;51.414;0.018;2022-11-20T11:00:48;10.70;;;3.85;;
42186;SDS011;27858;51.414;0.018;2022-11-20T11:05:58;14.05;;;2.72;;
42186;SDS011;27858;51.414;0.018;2022-11-20T11:08:36;10.02;;;2.20;;
42186;SDS011;27858;51.414;0.018;2022-11-20T11:11:21;10.93;;;2.60;;
42186;SDS011;27858;51.414;0.018;2022-11-20T11:13:50;6.35;;;2.03;;
42186;SDS011;27858;51.414;0.018;2022-11-20T11:16:25;6.80;;;2.17;;
42186;SDS011;27858;51.414;0.018;2022-11-20T11:19:03;8.40;;;2.53;;
42186;SDS011;27858;51.414;0.018;2022-11-20T11:21:37;8.30;;;3.10;;
42186;SDS011;27858;51.414;0.018;2022-11-20T11:24:15;13.88;;;2.67;;
42186;SDS011;27858;51.414;0.018;2022-11-20T11:27:12;8.45;;;1.95;;
42186;SDS011;27858;51.414;0.018;2022-11-20T11:29:44;10.38;;;2.75;;
42186;SDS011;27858;51.414;0.018;2022-11-20T11:34:59;11.25;;;2.85;;
42186;SDS011;27858;51.414;0.018;2022-11-20T11:37:47;16.52;;;3.20;;
42186;SDS011;27858;51.414;0.018;2022-11-20T11:40:17;9.95;;;2.80;;
42186;SDS011;27858;51.414;0.018;2022-11-20T11:42:57;13.27;;;3.95;;
42186;SDS011;27858;51.414;0.018;2022-11-20T11:45:26;15.23;;;3.42;;
42186;SDS011;27858;51.414;0.018;2022-11-20T12:47:19;7.77;;;2.33;;
42186;SDS011;27858;51.414;0.018;2022-11-20T12:53:38;18.48;;;3.38;;
42186;SDS011;27858;51.414;0.018;2022-11-20T13:07:12;9.50;;;2.78;;
42186;SDS011;27858;51.414;0.018;2022-11-20T13:09:43;14.68;;;2.88;;
42186;SDS011;27858;51.414;0.018;2022-11-20T13:20:26;19.58;;;3.03;;
42186;SDS011;27858;51.414;0.018;2022-11-20T13:22:54;15.65;;;3.13;;
42186;SDS011;27858;51.414;0.018;2022-11-20T13:25:27;8.63;;;2.47;;
42186;SDS011;27858;51.414;0.018;2022-11-20T13:27:56;14.18;;;3.58;;
42186;SDS011;27858;51.414;0.018;2022-11-20T13:30:26;25.30;;;3.63;;
42186;SDS011;27858;51.414;0.018;2022-11-20T13:32:58;15.75;;;2.97;;
42186;SDS011;27858;51.414;0.018;2022-11-20T13:35:56;8.32;;;2.30;;
42186;SDS011;27858;51.414;0.018;2022-11-20T13:38:28;15.43;;;2.53;;
42186;SDS011;27858;51.414;0.018;2022-11-20T13:41:07;7.88;;;2.30;;
42186;SDS011;27858;51.414;0.018;2022-11-20T13:43:53;12.18;;;3.10;;
42186;SDS011;27858;51.414;0.018;2022-11-20T13:46:34;9.10;;;3.03;;
42186;SDS011;27858;51.414;0.018;2022-11-20T13:49:06;21.70;;;3.40;;
42186;SDS011;27858;51.414;0.018;2022-11-20T13:51:44;11.18;;;2.78;;
42186;SDS011;27858;51.414;0.018;2022-11-20T14:02:27;13.50;;;3.15;;
42186;SDS011;27858;51.414;0.018;2022-11-20T14:04:59;11.00;;;3.13;;
42186;SDS011;27858;51.414;0.018;2022-11-20T14:07:32;7.57;;;2.28;;
42186;SDS011;27858;51.414;0.018;2022-11-20T14:10:27;8.52;;;2.75;;
42186;SDS011;27858;51.414;0.018;2022-11-20T14:12:57;9.77;;;3.05;;
42186;SDS011;27858;51.414;0.018;2022-11-20T14:15:35;6.50;;;2.22;;
42186;SDS011;27858;51.414;0.018;2022-11-20T14:18:18;11.10;;;2.88;;
42186;SDS011;27858;51.414;0.018;2022-11-20T14:20:48;7.78;;;2.28;;
42186;SDS011;27858;51.414;0.018;2022-11-20T14:23:23;13.18;;;3.13;;
42186;SDS011;27858;51.414;0.018;2022-11-20T14:25:55;12.63;;;2.78;;
42186;SDS011;27858;51.414;0.018;2022-11-20T14:28:26;8.75;;;2.17;;
42186;SDS011;27858;51.414;0.018;2022-11-20T14:30:55;14.38;;;3.50;;
42186;SDS011;27858;51.414;0.018;2022-11-20T14:33:23;14.25;;;2.88;;
42186;SDS011;27858;51.414;0.018;2022-11-20T14:35:53;5.85;;;2.03;;
42186;SDS011;27858;51.414;0.018;2022-11-20T14:38:28;8.68;;;2.70;;
42186;SDS011;27858;51.414;0.018;2022-11-20T14:41:08;11.00;;;2.30;;
42186;SDS011;27858;51.414;0.018;2022-11-20T14:43:45;9.57;;;2.38;;
42186;SDS011;27858;51.414;0.018;2022-11-20T14:46:13;13.13;;;2.38;;
42186;SDS011;27858;51.414;0.018;2022-11-20T14:48:43;10.57;;;2.70;;
42186;SDS011;27858;51.414;0.018;2022-11-20T14:54:16;16.10;;;2.55;;
42186;SDS011;27858;51.414;0.018;2022-11-20T14:57:45;8.30;;;2.45;;
42186;SDS011;27858;51.414;0.018;2022-11-20T14:59:46;12.15;;;2.70;;
42186;SDS011;27858;51.414;0.018;2022-11-20T15:02:13;13.32;;;3.72;;
42186;SDS011;27858;51.414;0.018;2022-11-20T15:04:47;11.80;;;3.13;;
42186;SDS011;27858;51.414;0.018;2022-11-20T15:10:01;6.35;;;2.70;;
42186;SDS011;27858;51.414;0.018;2022-11-20T15:12:36;10.30;;;3.15;;
42186;SDS011;27858;51.414;0.018;2022-11-20T15:15:08;11.88;;;3.45;;
42186;SDS011;27858;51.414;0.018;2022-11-20T15:17:38;7.38;;;2.15;;
42186;SDS011;27858;51.414;0.018;2022-11-20T15:20:11;6.82;;;2.05;;
42186;SDS011;27858;51.414;0.018;2022-11-20T15:22:41;12.35;;;2.67;;
42186;SDS011;27858;51.414;0.018;2022-11-20T15:25:11;6.22;;;1.98;;
42186;SDS011;27858;51.414;0.018;2022-11-20T15:27:43;10.43;;;2.47;;
42186;SDS011;27858;51.414;0.018;2022-11-20T15:30:18;7.53;;;3.03;;
42186;SDS011;27858;51.414;0.018;2022-11-20T15:32:46;9.70;;;2.55;;
42186;SDS011;27858;51.414;0.018;2022-11-20T15:35:14;7.68;;;2.17;;
42186;SDS011;27858;51.414;0.018;2022-11-20T15:37:41;7.53;;;2.33;;
42186;SDS011;27858;51.414;0.018;2022-11-20T15:40:08;6.85;;;2.22;;
42186;SDS011;27858;51.414;0.018;2022-11-20T15:42:35;11.73;;;2.85;;
42186;SDS011;27858;51.414;0.018;2022-11-20T15:45:25;14.57;;;3.22;;
42186;SDS011;27858;51.414;0.018;2022-11-20T15:47:54;7.50;;;1.95;;
42186;SDS011;27858;51.414;0.018;2022-11-20T15:50:21;9.23;;;3.35;;
42186;SDS011;27858;51.414;0.018;2022-11-20T15:52:50;12.77;;;3.60;;
42186;SDS011;27858;51.414;0.018;2022-11-20T15:55:17;9.43;;;2.63;;
42186;SDS011;27858;51.414;0.018;2022-11-20T15:57:43;6.72;;;2.30;;
42186;SDS011;27858;51.414;0.018;2022-11-20T16:00:10;15.38;;;3.28;;
42186;SDS011;27858;51.414;0.018;2022-11-20T16:02:38;12.75;;;3.08;;
42186;SDS011;27858;51.414;0.018;2022-11-20T16:05:05;9.70;;;2.80;;
42186;SDS011;27858;51.414;0.018;2022-11-20T16:07:37;15.65;;;4.50;;
42186;SDS011;27858;51.414;0.018;2022-11-20T16:10:04;8.20;;;2.67;;
42186;SDS011;27858;51.414;0.018;2022-11-20T16:12:31;12.10;;;3.35;;
42186;SDS011;27858;51.414;0.018;2022-11-20T16:15:16;13.13;;;2.75;;
42186;SDS011;27858;51.414;0.018;2022-11-20T16:18:02;9.70;;;3.17;;
42186;SDS011;27858;51.414;0.018;2022-11-20T16:20:29;10.25;;;2.65;;
42186;SDS011;27858;51.414;0.018;2022-11-20T16:22:56;12.27;;;3.05;;
42186;SDS011;27858;51.414;0.018;2022-11-20T16:25:22;9.02;;;3.45;;
42186;SDS011;27858;51.414;0.018;2022-11-20T16:27:49;16.35;;;3.03;;
42186;SDS011;27858;51.414;0.018;2022-11-20T16:30:16;12.20;;;3.30;;
42186;SDS011;27858;51.414;0.018;2022-11-20T16:32:43;16.85;;;2.53;;
42186;SDS011;27858;51.414;0.018;2022-11-20T16:35:10;13.18;;;2.30;;
42186;SDS011;27858;51.414;0.018;2022-11-20T16:37:37;5.43;;;2.35;;
42186;SDS011;27858;51.414;0.018;2022-11-20T16:40:05;13.55;;;2.78;;
42186;SDS011;27858;51.414;0.018;2022-11-20T16:42:35;13.15;;;2.25;;
42186;SDS011;27858;51.414;0.018;2022-11-20T16:45:03;15.93;;;2.58;;
42186;SDS011;27858;51.414;0.018;2022-11-20T16:47:34;6.70;;;2.20;;
42186;SDS011;27858;51.414;0.018;2022-11-20T16:50:01;10.13;;;2.70;;
42186;SDS011;27858;51.414;0.018;2022-11-20T16:52:30;4.70;;;1.85;;
42186;SDS011;27858;51.414;0.018;2022-11-20T16:54:57;11.68;;;2.55;;
42186;SDS011;27858;51.414;0.018;2022-11-20T16:57:26;6.68;;;2.13;;
42186;SDS011;27858;51.414;0.018;2022-11-20T16:59:54;10.15;;;2.13;;
42186;SDS011;27858;51.414;0.018;2022-11-20T17:02:27;8.30;;;2.13;;
42186;SDS011;27858;51.414;0.018;2022-11-20T17:04:54;9.73;;;1.88;;
42186;SDS011;27858;51.414;0.018;2022-11-20T17:07:20;7.30;;;2.28;;
42186;SDS011;27858;51.414;0.018;2022-11-20T17:09:47;3.75;;;1.70;;
42186;SDS011;27858;51.414;0.018;2022-11-20T17:12:14;10.93;;;1.95;;
42186;SDS011;27858;51.414;0.018;2022-11-20T17:14:41;7.88;;;2.22;;
42186;SDS011;27858;51.414;0.018;2022-11-20T17:17:09;10.63;;;3.55;;
42186;SDS011;27858;51.414;0.018;2022-11-20T17:19:36;3.83;;;1.55;;
42186;SDS011;27858;51.414;0.018;2022-11-20T17:22:03;4.10;;;2.17;;
42186;SDS011;27858;51.414;0.018;2022-11-20T17:24:29;8.05;;;2.53;;
42186;SDS011;27858;51.414;0.018;2022-11-20T17:26:57;8.63;;;1.98;;
42186;SDS011;27858;51.414;0.018;2022-11-20T17:29:24;11.60;;;4.10;;
42186;SDS011;27858;51.414;0.018;2022-11-20T17:31:50;10.95;;;2.35;;
42186;SDS011;27858;51.414;0.018;2022-11-20T17:34:19;6.63;;;2.85;;
42186;SDS011;27858;51.414;0.018;2022-11-20T17:36:47;18.92;;;2.63;;
42186;SDS011;27858;51.414;0.018;2022-11-20T17:39:14;10.20;;;2.30;;
42186;SDS011;27858;51.414;0.018;2022-11-20T17:41:42;10.73;;;2.45;;
42186;SDS011;27858;51.414;0.018;2022-11-20T17:44:10;6.68;;;2.35;;
42186;SDS011;27858;51.414;0.018;2022-11-20T17:46:37;7.70;;;2.38;;
42186;SDS011;27858;51.414;0.018;2022-11-20T17:49:04;11.05;;;2.85;;
42186;SDS011;27858;51.414;0.018;2022-11-20T17:51:33;9.15;;;3.22;;
42186;SDS011;27858;51.414;0.018;2022-11-20T17:54:03;14.02;;;3.63;;
42186;SDS011;27858;51.414;0.018;2022-11-20T17:56:33;8.73;;;2.78;;
42186;SDS011;27858;51.414;0.018;2022-11-20T17:59:19;12.45;;;3.05;;
42186;SDS011;27858;51.414;0.018;2022-11-20T18:01:47;8.80;;;2.58;;
42186;SDS011;27858;51.414;0.018;2022-11-20T18:04:14;7.30;;;3.13;;
42186;SDS011;27858;51.414;0.018;2022-11-20T18:06:42;4.93;;;2.97;;
42186;SDS011;27858;51.414;0.018;2022-11-20T18:09:09;8.02;;;2.28;;
42186;SDS011;27858;51.414;0.018;2022-11-20T18:11:37;7.50;;;2.88;;
42186;SDS011;27858;51.414;0.018;2022-11-20T18:14:07;8.45;;;2.20;;
42186;SDS011;27858;51.414;0.018;2022-11-20T18:16:55;6.72;;;2.38;;
42186;SDS011;27858;51.414;0.018;2022-11-20T18:21:57;5.53;;;1.85;;
42186;SDS011;27858;51.414;0.018;2022-11-20T18:24:26;18.48;;;3.42;;
42186;SDS011;27858;51.414;0.018;2022-11-20T18:26:53;4.20;;;2.30;;
42186;SDS011;27858;51.414;0.018;2022-11-20T18:29:20;7.05;;;2.40;;
42186;SDS011;27858;51.414;0.018;2022-11-20T18:31:47;6.90;;;1.95;;
42186;SDS011;27858;51.414;0.018;2022-11-20T18:34:14;6.97;;;2.22;;
42186;SDS011;27858;51.414;0.018;2022-11-20T18:36:42;4.03;;;1.70;;
42186;SDS011;27858;51.414;0.018;2022-11-20T18:39:10;7.25;;;1.77;;
42186;SDS011;27858;51.414;0.018;2022-11-20T18:41:38;9.68;;;2.83;;
42186;SDS011;27858;51.414;0.018;2022-11-20T18:44:25;9.95;;;2.85;;
42186;SDS011;27858;51.414;0.018;2022-11-20T18:47:31;9.07;;;2.70;;
42186;SDS011;27858;51.414;0.018;2022-11-20T18:50:02;3.78;;;1.58;;
42186;SDS011;27858;51.414;0.018;2022-11-20T18:52:32;7.72;;;2.55;;
42186;SDS011;27858;51.414;0.018;2022-11-20T18:55:03;10.15;;;2.50;;
42186;SDS011;27858;51.414;0.018;2022-11-20T18:57:31;10.07;;;2.22;;
42186;SDS011;27858;51.414;0.018;2022-11-20T18:59:58;8.55;;;2.95;;
42186;SDS011;27858;51.414;0.018;2022-11-20T19:02:34;5.63;;;2.30;;
42186;SDS011;27858;51.414;0.018;2022-11-20T19:05:07;5.78;;;1.63;;
42186;SDS011;27858;51.414;0.018;2022-11-20T19:07:35;4.97;;;1.80;;
42186;SDS011;27858;51.414;0.018;2022-11-20T19:10:08;4.65;;;2.15;;
42186;SDS011;27858;51.414;0.018;2022-11-20T19:12:38;5.88;;;2.03;;
42186;SDS011;27858;51.414;0.018;2022-11-20T19:15:05;9.25;;;2.17;;
42186;SDS011;27858;51.414;0.018;2022-11-20T19:17:32;4.68;;;2.03;;
42186;SDS011;27858;51.414;0.018;2022-11-20T19:20:02;5.03;;;1.83;;
42186;SDS011;27858;51.414;0.018;2022-11-20T19:22:31;8.07;;;2.40;;
42186;SDS011;27858;51.414;0.018;2022-11-20T19:24:58;8.00;;;2.00;;
42186;SDS011;27858;51.414;0.018;2022-11-20T19:27:25;3.58;;;1.60;;
42186;SDS011;27858;51.414;0.018;2022-11-20T19:29:52;3.42;;;1.70;;
42186;SDS011;27858;51.414;0.018;2022-11-20T19:32:23;5.35;;;2.38;;
42186;SDS011;27858;51.414;0.018;2022-11-20T19:34:50;4.43;;;2.10;;
42186;SDS011;27858;51.414;0.018;2022-11-20T19:37:17;5.68;;;2.35;;
42186;SDS011;27858;51.414;0.018;2022-11-20T19:39:44;5.07;;;2.40;;
42186;SDS011;27858;51.414;0.018;2022-11-20T19:42:11;5.32;;;2.50;;
42186;SDS011;27858;51.414;0.018;2022-11-20T19:44:37;8.43;;;2.65;;
42186;SDS011;27858;51.414;0.018;2022-11-20T19:47:04;6.78;;;2.20;;
42186;SDS011;27858;51.414;0.018;2022-11-20T19:49:39;4.85;;;2.35;;
42186;SDS011;27858;51.414;0.018;2022-11-20T19:52:06;5.43;;;2.33;;
42186;SDS011;27858;51.414;0.018;2022-11-20T19:54:36;4.25;;;1.80;;
42186;SDS011;27858;51.414;0.018;2022-11-20T19:57:03;2.83;;;1.60;;
42186;SDS011;27858;51.414;0.018;2022-11-20T19:59:29;7.85;;;3.08;;
42186;SDS011;27858;51.414;0.018;2022-11-20T20:01:56;4.10;;;1.38;;
42186;SDS011;27858;51.414;0.018;2022-11-20T20:04:23;8.00;;;2.45;;
42186;SDS011;27858;51.414;0.018;2022-11-20T20:06:50;8.05;;;2.95;;
42186;SDS011;27858;51.414;0.018;2022-11-20T20:09:17;5.10;;;1.88;;
42186;SDS011;27858;51.414;0.018;2022-11-20T20:11:49;3.60;;;1.63;;
42186;SDS011;27858;51.414;0.018;2022-11-20T20:14:15;4.50;;;1.48;;
42186;SDS011;27858;51.414;0.018;2022-11-20T20:16:43;6.47;;;1.88;;
42186;SDS011;27858;51.414;0.018;2022-11-20T20:19:11;3.08;;;2.03;;
42186;SDS011;27858;51.414;0.018;2022-11-20T20:21:40;5.90;;;2.35;;
42186;SDS011;27858;51.414;0.018;2022-11-20T20:24:08;3.30;;;1.42;;
42186;SDS011;27858;51.414;0.018;2022-11-20T20:26:36;4.97;;;1.83;;
42186;SDS011;27858;51.414;0.018;2022-11-20T20:29:03;5.05;;;2.13;;
42186;SDS011;27858;51.414;0.018;2022-11-20T20:31:30;3.55;;;1.67;;
42186;SDS011;27858;51.414;0.018;2022-11-20T20:33:58;4.55;;;2.03;;
42186;SDS011;27858;51.414;0.018;2022-11-20T20:36:26;5.05;;;1.95;;
42186;SDS011;27858;51.414;0.018;2022-11-20T20:38:53;6.82;;;1.88;;
42186;SDS011;27858;51.414;0.018;2022-11-20T20:41:22;5.43;;;2.20;;
42186;SDS011;27858;51.414;0.018;2022-11-20T20:43:50;5.50;;;2.70;;
42186;SDS011;27858;51.414;0.018;2022-11-20T20:46:36;8.32;;;2.05;;
42186;SDS011;27858;51.414;0.018;2022-11-20T20:49:02;5.25;;;2.30;;
42186;SDS011;27858;51.414;0.018;2022-11-20T20:51:29;6.60;;;2.05;;
42186;SDS011;27858;51.414;0.018;2022-11-20T20:53:56;7.32;;;1.92;;
42186;SDS011;27858;51.414;0.018;2022-11-20T20:56:23;3.50;;;1.73;;
42186;SDS011;27858;51.414;0.018;2022-11-20T20:58:50;8.18;;;1.73;;
42186;SDS011;27858;51.414;0.018;2022-11-20T21:01:17;5.30;;;1.95;;
42186;SDS011;27858;51.414;0.018;2022-11-20T21:03:45;10.73;;;2.25;;
42186;SDS011;27858;51.414;0.018;2022-11-20T21:06:12;7.07;;;2.60;;
42186;SDS011;27858;51.414;0.018;2022-11-20T21:08:39;6.78;;;1.80;;
42186;SDS011;27858;51.414;0.018;2022-11-20T21:11:10;6.20;;;2.47;;
42186;SDS011;27858;51.414;0.018;2022-11-20T21:13:39;4.10;;;1.58;;
42186;SDS011;27858;51.414;0.018;2022-11-20T21:16:08;3.95;;;1.77;;
